Time;durP1;ratioP1;P1;durP2;ratioP2;P2;SDS_P1;SDS_P2;PMS_P1;PMS_P2;Temp;Humidity;BMP_temperature;BMP_pressure;BME280_temperature;BME280_humidity;BME280_pressure;Samples;Min_cycle;Max_cycle;Signal;HPM_P1;HPM_P2
2023/04/26 00:01:20;;;;;;;6.47;4.20;;;3.00;99.90;;;;;;513990;231;27453;-72
2023/04/26 00:03:21;;;;;;;6.00;3.85;;;2.90;99.90;;;;;;513816;231;27332;-72
2023/04/26 00:05:22;;;;;;;5.05;3.20;;;2.50;99.90;;;;;;513933;231;27440;-72
2023/04/26 00:07:34;;;;;;;5.93;3.83;;;2.90;99.90;;;;;;513997;231;27406;-74
2023/04/26 00:09:24;;;;;;;5.07;3.80;;;2.90;99.90;;;;;;513148;231;27404;-71
2023/04/26 00:11:25;;;;;;;4.47;4.05;;;2.80;99.90;;;;;;514001;231;27824;-72
2023/04/26 00:13:27;;;;;;;7.95;4.12;;;3.00;99.90;;;;;;513965;231;27788;-72
2023/04/26 00:15:28;;;;;;;7.75;3.70;;;2.80;99.90;;;;;;513935;231;27978;-72
2023/04/26 00:17:30;;;;;;;7.18;4.45;;;2.50;99.90;;;;;;514007;231;29067;-72
2023/04/26 00:19:31;;;;;;;7.00;3.95;;;2.80;99.90;;;;;;513950;231;27331;-71
2023/04/26 00:21:32;;;;;;;11.75;5.03;;;2.80;99.90;;;;;;513874;231;27363;-72
2023/04/26 00:23:35;;;;;;;6.32;4.45;;;2.60;99.90;;;;;;513912;231;27323;-71
2023/04/26 00:25:34;;;;;;;8.10;4.50;;;2.70;99.90;;;;;;513697;231;27475;-71
2023/04/26 00:27:35;;;;;;;5.93;4.60;;;2.60;99.90;;;;;;514018;231;27731;-73
2023/04/26 00:29:37;;;;;;;7.40;4.28;;;2.60;99.90;;;;;;513992;231;27335;-72
2023/04/26 00:31:38;;;;;;;7.70;4.28;;;2.50;99.90;;;;;;513912;231;27465;-72
2023/04/26 00:33:39;;;;;;;8.43;4.95;;;2.60;99.90;;;;;;513986;231;27423;-71
2023/04/26 00:35:40;;;;;;;8.65;4.25;;;2.50;99.90;;;;;;513904;231;27362;-72
2023/04/26 00:37:42;;;;;;;8.75;4.20;;;2.60;99.90;;;;;;513985;231;27397;-73
2023/04/26 00:39:43;;;;;;;8.45;4.22;;;2.50;99.90;;;;;;513871;231;27802;-72
2023/04/26 00:41:45;;;;;;;8.05;4.03;;;2.60;99.90;;;;;;514028;231;27835;-71
2023/04/26 00:43:45;;;;;;;10.18;3.95;;;2.50;99.90;;;;;;514002;231;27872;-71
2023/04/26 00:45:47;;;;;;;6.82;4.40;;;2.10;99.90;;;;;;513943;231;27375;-72
2023/04/26 00:47:48;;;;;;;8.68;4.55;;;2.00;99.90;;;;;;514031;231;27363;-73
2023/04/26 00:49:49;;;;;;;8.43;4.10;;;2.50;99.90;;;;;;514032;231;27328;-72
2023/04/26 00:51:50;;;;;;;10.18;4.62;;;2.50;99.90;;;;;;513930;231;27362;-73
2023/04/26 00:53:52;;;;;;;9.02;4.53;;;2.50;99.90;;;;;;513917;231;27322;-72
2023/04/26 00:55:53;;;;;;;7.82;4.47;;;2.00;99.90;;;;;;513892;231;27474;-71
2023/04/26 00:57:54;;;;;;;6.85;4.55;;;2.10;99.90;;;;;;514013;231;27382;-73
2023/04/26 00:59:55;;;;;;;6.93;4.20;;;2.30;99.90;;;;;;514014;231;27394;-72
2023/04/26 01:01:57;;;;;;;8.82;3.75;;;2.60;99.90;;;;;;513997;231;27543;-72
2023/04/26 01:03:58;;;;;;;8.82;4.15;;;2.30;99.90;;;;;;513987;231;27467;-71
2023/04/26 01:05:59;;;;;;;6.50;4.25;;;2.10;99.90;;;;;;513945;231;27890;-71
2023/04/26 01:08:01;;;;;;;5.78;4.45;;;1.80;99.90;;;;;;513966;231;27827;-72
2023/04/26 01:10:04;;;;;;;6.90;3.50;;;2.20;99.90;;;;;;513971;231;27949;-71
2023/04/26 01:12:03;;;;;;;7.45;4.47;;;1.90;99.90;;;;;;513759;231;27898;-72
2023/04/26 01:14:04;;;;;;;7.00;4.70;;;2.10;99.90;;;;;;513986;231;27457;-71
2023/04/26 01:16:05;;;;;;;6.03;3.95;;;1.90;99.90;;;;;;513947;231;27316;-71
2023/04/26 01:18:07;;;;;;;5.87;4.28;;;1.60;99.90;;;;;;514022;231;27362;-72
2023/04/26 01:20:09;;;;;;;5.85;4.07;;;1.90;99.90;;;;;;513997;231;27445;-72
2023/04/26 01:22:09;;;;;;;7.30;4.32;;;1.50;99.90;;;;;;513924;231;27370;-72
2023/04/26 01:24:10;;;;;;;6.15;4.18;;;1.90;99.90;;;;;;513993;231;27441;-71
2023/04/26 01:26:12;;;;;;;5.32;3.80;;;2.40;99.90;;;;;;513982;231;27433;-71
2023/04/26 01:28:13;;;;;;;6.68;3.90;;;1.70;99.90;;;;;;514016;231;27371;-71
2023/04/26 01:30:14;;;;;;;7.40;3.70;;;1.80;99.90;;;;;;514006;231;27401;-71
2023/04/26 01:32:15;;;;;;;4.30;3.90;;;1.60;99.90;;;;;;514010;231;27359;-72
2023/04/26 01:34:17;;;;;;;6.72;4.28;;;1.80;99.90;;;;;;513968;231;27403;-72
2023/04/26 01:36:18;;;;;;;4.95;4.40;;;2.30;99.90;;;;;;513989;231;27941;-72
2023/04/26 01:38:19;;;;;;;5.78;3.70;;;1.90;99.90;;;;;;514009;231;27835;-72
2023/04/26 01:40:20;;;;;;;5.90;4.25;;;1.80;99.90;;;;;;514003;231;28888;-72
2023/04/26 01:42:22;;;;;;;5.05;4.18;;;2.10;99.90;;;;;;514011;231;27928;-72
2023/04/26 01:44:23;;;;;;;4.47;3.75;;;2.00;99.90;;;;;;513939;231;27374;-71
2023/04/26 01:46:24;;;;;;;6.60;4.20;;;1.10;99.90;;;;;;514016;231;27460;-71
2023/04/26 01:48:25;;;;;;;5.28;4.20;;;1.60;99.90;;;;;;514023;231;27491;-72
2023/04/26 01:50:27;;;;;;;17.52;4.10;;;1.50;99.90;;;;;;514018;231;27394;-72
2023/04/26 01:52:28;;;;;;;7.03;3.95;;;1.80;99.90;;;;;;514026;231;27468;-72
2023/04/26 01:54:29;;;;;;;7.62;4.30;;;1.20;99.90;;;;;;513968;231;27398;-71
2023/04/26 01:56:31;;;;;;;6.00;4.40;;;1.80;99.90;;;;;;514044;231;27351;-72
2023/04/26 01:58:32;;;;;;;6.40;4.10;;;1.50;99.90;;;;;;514036;231;27398;-72
2023/04/26 02:00:33;;;;;;;4.65;4.15;;;1.70;99.90;;;;;;514025;231;27339;-71
2023/04/26 02:02:34;;;;;;;6.55;4.32;;;1.60;99.90;;;;;;514014;231;27437;-72
2023/04/26 02:04:35;;;;;;;4.32;3.92;;;1.50;99.90;;;;;;513941;231;27839;-72
2023/04/26 02:06:37;;;;;;;6.65;4.05;;;1.50;99.90;;;;;;514026;231;27938;-71
2023/04/26 02:08:38;;;;;;;13.40;4.05;;;1.60;99.90;;;;;;514060;231;27853;-72
2023/04/26 02:10:39;;;;;;;7.20;4.97;;;1.60;99.90;;;;;;514047;231;27376;-71
2023/04/26 02:12:40;;;;;;;8.88;4.45;;;1.60;99.90;;;;;;513889;231;27351;-72
2023/04/26 02:14:42;;;;;;;8.10;3.80;;;1.60;99.90;;;;;;513921;231;27464;-71
2023/04/26 02:16:43;;;;;;;5.87;3.65;;;1.60;99.90;;;;;;513955;231;27414;-72
2023/04/26 02:18:44;;;;;;;6.37;4.30;;;1.60;99.90;;;;;;513967;231;27468;-73
2023/04/26 02:20:45;;;;;;;6.47;3.80;;;1.50;99.90;;;;;;514019;231;27385;-72
2023/04/26 02:22:47;;;;;;;6.37;3.92;;;1.40;99.90;;;;;;514017;231;27394;-72
2023/04/26 02:24:48;;;;;;;7.45;4.40;;;1.50;99.90;;;;;;513932;231;27386;-71
2023/04/26 02:26:49;;;;;;;9.77;4.65;;;1.00;99.90;;;;;;514016;231;27381;-72
2023/04/26 02:28:50;;;;;;;5.57;4.05;;;1.40;99.90;;;;;;513979;231;27343;-72
2023/04/26 02:30:52;;;;;;;6.12;4.87;;;1.40;99.90;;;;;;514038;231;27800;-71
2023/04/26 02:32:53;;;;;;;9.32;4.57;;;1.10;99.90;;;;;;514003;231;27965;-72
2023/04/26 02:34:54;;;;;;;6.75;4.22;;;2.00;99.90;;;;;;513887;231;27865;-71
2023/04/26 02:36:55;;;;;;;9.30;4.43;;;1.40;99.90;;;;;;513986;231;27825;-72
2023/04/26 02:38:57;;;;;;;4.55;3.92;;;1.60;99.90;;;;;;513986;231;27744;-71
2023/04/26 02:40:58;;;;;;;5.95;4.22;;;1.30;99.90;;;;;;513987;231;27347;-71
2023/04/26 02:42:59;;;;;;;4.80;3.47;;;1.60;99.90;;;;;;514016;231;27436;-72
2023/04/26 02:45:00;;;;;;;9.68;5.50;;;1.20;99.90;;;;;;513943;231;27425;-71
2023/04/26 02:47:02;;;;;;;6.75;3.70;;;1.20;99.90;;;;;;513944;231;27387;-69
2023/04/26 02:49:03;;;;;;;9.55;4.78;;;1.30;99.90;;;;;;513995;231;27331;-71
2023/04/26 02:51:05;;;;;;;7.60;5.05;;;1.10;99.90;;;;;;513986;231;27453;-72
2023/04/26 02:53:05;;;;;;;6.18;4.22;;;1.20;99.90;;;;;;513829;231;27369;-72
2023/04/26 02:55:07;;;;;;;8.35;4.50;;;1.20;99.90;;;;;;513950;231;27494;-71
2023/04/26 02:57:08;;;;;;;5.68;3.80;;;1.00;99.90;;;;;;513934;231;27557;-72
2023/04/26 02:59:09;;;;;;;6.05;4.28;;;1.20;99.90;;;;;;513970;231;28092;-70
2023/04/26 03:01:12;;;;;;;5.05;4.37;;;0.80;99.90;;;;;;513975;231;27873;-69
2023/04/26 03:03:12;;;;;;;6.80;4.25;;;1.20;99.90;;;;;;513906;231;27875;-71
2023/04/26 03:05:13;;;;;;;4.85;3.80;;;1.20;99.90;;;;;;513921;231;27778;-71
2023/04/26 03:07:14;;;;;;;4.22;3.33;;;1.10;99.90;;;;;;513984;231;27375;-71
2023/04/26 03:09:16;;;;;;;4.35;3.95;;;1.10;99.90;;;;;;514011;231;27381;-71
2023/04/26 03:11:17;;;;;;;7.45;4.25;;;0.70;99.90;;;;;;513989;231;27417;-71
2023/04/26 03:13:18;;;;;;;5.75;3.92;;;1.00;99.90;;;;;;513999;231;27473;-72
2023/04/26 03:15:19;;;;;;;3.60;3.30;;;1.10;99.90;;;;;;513903;231;27335;-71
2023/04/26 03:17:20;;;;;;;4.95;3.70;;;1.10;99.90;;;;;;513965;231;27446;-71
2023/04/26 03:19:22;;;;;;;8.13;3.75;;;1.20;99.90;;;;;;514001;231;27457;-71
2023/04/26 03:21:23;;;;;;;5.95;3.72;;;1.10;99.90;;;;;;514008;231;27382;-71
2023/04/26 03:23:24;;;;;;;6.12;3.80;;;0.80;99.90;;;;;;514036;231;27357;-72
2023/04/26 03:25:26;;;;;;;6.05;3.92;;;0.80;99.90;;;;;;513950;231;27406;-71
2023/04/26 03:27:27;;;;;;;3.80;3.40;;;0.70;99.90;;;;;;513987;231;27446;-72
2023/04/26 03:29:28;;;;;;;8.20;3.78;;;0.70;99.90;;;;;;514033;231;27910;-74
2023/04/26 03:31:30;;;;;;;10.32;3.53;;;1.10;99.90;;;;;;514030;231;27875;-72
2023/04/26 03:33:30;;;;;;;9.88;3.72;;;1.00;99.90;;;;;;514042;231;27836;-72
2023/04/26 03:35:32;;;;;;;7.78;4.05;;;0.50;99.90;;;;;;513991;231;27326;-71
2023/04/26 03:37:33;;;;;;;5.35;4.18;;;0.70;99.90;;;;;;513993;231;27433;-71
2023/04/26 03:39:34;;;;;;;6.47;4.10;;;0.60;99.90;;;;;;514008;231;27460;-71
2023/04/26 03:41:38;;;;;;;5.32;3.78;;;0.70;99.90;;;;;;513988;231;27324;-72
2023/04/26 03:43:37;;;;;;;4.12;3.70;;;0.90;99.90;;;;;;513773;231;27402;-71
2023/04/26 03:45:38;;;;;;;11.52;3.62;;;0.60;99.90;;;;;;513931;231;27366;-71
2023/04/26 03:47:39;;;;;;;7.25;4.50;;;0.80;99.90;;;;;;514001;231;27485;-71
2023/04/26 03:49:40;;;;;;;5.28;3.75;;;0.70;99.90;;;;;;513987;231;27402;-71
2023/04/26 03:51:42;;;;;;;8.38;4.10;;;0.70;99.90;;;;;;514005;231;27464;-71
2023/04/26 03:53:45;;;;;;;9.10;5.00;;;0.60;99.90;;;;;;514024;231;27383;-72
2023/04/26 03:55:44;;;;;;;4.90;3.53;;;0.50;99.90;;;;;;513794;231;27319;-72
2023/04/26 03:57:45;;;;;;;5.72;3.70;;;0.50;99.90;;;;;;513946;231;27885;-72
2023/04/26 03:59:47;;;;;;;8.05;4.47;;;1.20;99.90;;;;;;513988;231;27832;-72
2023/04/26 04:01:48;;;;;;;10.43;4.57;;;0.90;99.90;;;;;;513935;231;27874;-72
2023/04/26 04:03:49;;;;;;;7.78;3.67;;;0.90;99.90;;;;;;513990;231;27365;-73
2023/04/26 04:05:50;;;;;;;7.35;3.83;;;0.80;99.90;;;;;;513817;231;27419;-71
2023/04/26 04:07:52;;;;;;;7.45;3.75;;;0.80;99.90;;;;;;514014;231;27359;-72
2023/04/26 04:09:53;;;;;;;4.87;3.47;;;0.80;99.90;;;;;;513985;231;27419;-71
2023/04/26 04:11:54;;;;;;;3.37;3.03;;;0.90;99.90;;;;;;514010;231;27359;-71
2023/04/26 04:13:55;;;;;;;6.30;3.72;;;0.80;99.90;;;;;;514029;231;27381;-73
2023/04/26 04:15:57;;;;;;;6.35;3.75;;;0.90;99.90;;;;;;513898;231;27432;-71
2023/04/26 04:17:58;;;;;;;4.75;3.80;;;0.90;99.90;;;;;;513896;231;27455;-72
2023/04/26 04:19:59;;;;;;;9.30;4.30;;;0.90;99.90;;;;;;513984;231;27334;-72
2023/04/26 04:22:00;;;;;;;6.40;3.75;;;0.90;99.90;;;;;;513982;231;27383;-71
2023/04/26 04:24:02;;;;;;;7.55;3.37;;;0.90;99.90;;;;;;513984;231;27779;-72
2023/04/26 04:26:03;;;;;;;6.32;3.70;;;0.90;99.90;;;;;;513956;231;27952;-71
2023/04/26 04:28:04;;;;;;;5.82;3.78;;;0.80;99.90;;;;;;513979;231;27956;-71
2023/04/26 04:30:08;;;;;;;4.82;3.97;;;0.80;99.90;;;;;;513980;231;27845;-71
2023/04/26 04:32:07;;;;;;;8.93;4.25;;;0.70;99.90;;;;;;513777;231;27353;-72
2023/04/26 04:34:08;;;;;;;7.55;3.90;;;0.70;99.90;;;;;;514008;231;27466;-72
2023/04/26 04:36:09;;;;;;;5.75;3.65;;;0.70;99.90;;;;;;514009;231;27339;-71
2023/04/26 04:38:10;;;;;;;6.22;3.72;;;0.70;99.90;;;;;;514044;231;27574;-71
2023/04/26 04:40:12;;;;;;;5.10;3.37;;;0.70;99.90;;;;;;514024;231;27315;-72
2023/04/26 04:42:13;;;;;;;6.72;3.78;;;0.60;99.90;;;;;;514070;231;27402;-71
2023/04/26 04:44:15;;;;;;;7.85;3.50;;;0.70;99.90;;;;;;514026;231;27421;-71
2023/04/26 04:46:15;;;;;;;6.78;4.25;;;0.70;99.90;;;;;;514014;231;27335;-71
2023/04/26 04:48:17;;;;;;;7.22;3.83;;;0.70;99.90;;;;;;514059;231;27438;-72
2023/04/26 04:50:18;;;;;;;6.20;4.03;;;0.70;99.90;;;;;;514035;231;27349;-71
2023/04/26 04:52:23;;;;;;;4.00;3.40;;;0.80;99.90;;;;;;514029;231;27374;-72
2023/04/26 04:54:20;;;;;;;5.97;4.00;;;0.80;99.90;;;;;;513718;231;27887;-72
2023/04/26 04:56:22;;;;;;;5.30;3.50;;;0.80;99.90;;;;;;514061;231;27779;-72
2023/04/26 04:58:23;;;;;;;10.05;3.87;;;0.80;99.90;;;;;;514032;231;27842;-71
2023/04/26 05:00:24;;;;;;;7.75;3.65;;;0.90;99.90;;;;;;514002;231;27303;-71
2023/04/26 05:02:25;;;;;;;5.40;4.00;;;0.80;99.90;;;;;;514040;231;27465;-71
2023/04/26 05:04:27;;;;;;;8.50;3.72;;;0.90;99.90;;;;;;513992;231;27486;-73
2023/04/26 05:06:28;;;;;;;5.82;3.25;;;1.00;99.90;;;;;;514074;231;27362;-71
2023/04/26 05:08:30;;;;;;;7.10;3.78;;;1.10;99.90;;;;;;513999;231;27390;-72
2023/04/26 05:10:30;;;;;;;3.60;3.30;;;1.10;99.90;;;;;;514042;231;27327;-71
2023/04/26 05:12:32;;;;;;;9.55;4.12;;;1.10;99.90;;;;;;514061;231;27457;-72
2023/04/26 05:14:33;;;;;;;5.30;3.20;;;1.10;99.90;;;;;;514017;231;27449;-72
2023/04/26 05:16:34;;;;;;;5.57;3.90;;;1.10;99.90;;;;;;514053;231;27394;-71
2023/04/26 05:18:35;;;;;;;4.95;3.58;;;1.10;99.90;;;;;;514004;231;27347;-71
2023/04/26 05:20:37;;;;;;;4.37;3.67;;;1.20;99.90;;;;;;514019;231;27319;-72
2023/04/26 05:22:38;;;;;;;17.58;4.80;;;1.20;99.90;;;;;;514042;231;27925;-72
2023/04/26 05:24:40;;;;;;;6.10;3.87;;;1.20;99.90;;;;;;513989;231;27973;-72
2023/04/26 05:26:40;;;;;;;5.32;4.28;;;1.20;99.90;;;;;;514024;231;27843;-72
2023/04/26 05:28:42;;;;;;;4.60;3.20;;;1.30;99.90;;;;;;514000;231;27448;-72
2023/04/26 05:30:43;;;;;;;4.87;3.58;;;1.30;99.90;;;;;;514018;231;27407;-71
2023/04/26 05:32:44;;;;;;;6.40;4.57;;;1.30;99.90;;;;;;514069;231;27319;-71
2023/04/26 05:34:46;;;;;;;5.10;3.67;;;1.40;99.90;;;;;;514000;231;27399;-72
2023/04/26 05:36:47;;;;;;;5.60;3.65;;;1.40;99.90;;;;;;514034;231;27319;-72
2023/04/26 05:38:48;;;;;;;10.48;4.05;;;1.40;99.90;;;;;;514024;231;27382;-72
2023/04/26 05:40:49;;;;;;;9.10;4.28;;;1.40;99.90;;;;;;514017;231;27353;-72
2023/04/26 05:42:50;;;;;;;5.20;4.12;;;1.50;99.90;;;;;;514055;231;27323;-71
2023/04/26 05:44:52;;;;;;;8.57;4.30;;;1.60;99.90;;;;;;514001;231;27453;-72
2023/04/26 05:46:53;;;;;;;6.18;4.05;;;1.60;99.90;;;;;;514045;231;27346;-72
2023/04/26 05:48:55;;;;;;;6.80;3.85;;;1.60;99.90;;;;;;513995;231;27812;-72
2023/04/26 05:50:55;;;;;;;4.75;3.90;;;1.60;99.90;;;;;;513912;231;28001;-73
2023/04/26 05:52:57;;;;;;;7.47;3.97;;;1.70;99.90;;;;;;514047;231;28949;-72
2023/04/26 05:54:58;;;;;;;7.80;4.20;;;1.80;99.90;;;;;;513952;231;27866;-71
2023/04/26 05:56:59;;;;;;;6.30;4.50;;;1.80;99.90;;;;;;514021;231;27323;-72
2023/04/26 05:59:00;;;;;;;5.55;4.47;;;1.90;99.90;;;;;;513998;231;27590;-71
2023/04/26 06:01:02;;;;;;;10.55;4.40;;;1.90;99.90;;;;;;514015;231;27359;-73
2023/04/26 06:03:03;;;;;;;4.50;4.10;;;1.90;99.90;;;;;;514013;231;27327;-71
2023/04/26 06:05:05;;;;;;;17.65;4.57;;;2.00;99.90;;;;;;513962;231;27350;-72
2023/04/26 06:07:06;;;;;;;6.37;3.70;;;2.00;99.90;;;;;;514004;231;27331;-72
2023/04/26 06:09:07;;;;;;;6.53;3.90;;;2.10;99.90;;;;;;514029;231;27379;-72
2023/04/26 06:11:08;;;;;;;7.25;4.07;;;2.10;99.90;;;;;;514033;231;27457;-73
2023/04/26 06:13:09;;;;;;;6.03;3.83;;;2.20;99.90;;;;;;513886;231;27302;-72
2023/04/26 06:15:10;;;;;;;5.18;4.22;;;2.30;99.90;;;;;;513951;231;27370;-71
2023/04/26 06:17:12;;;;;;;7.10;3.80;;;2.30;99.90;;;;;;513999;231;28502;-71
2023/04/26 06:19:13;;;;;;;6.30;4.03;;;2.40;99.90;;;;;;514006;231;27787;-71
2023/04/26 06:21:14;;;;;;;4.75;3.78;;;2.50;99.90;;;;;;514027;231;27917;-73
2023/04/26 06:23:15;;;;;;;5.03;4.07;;;2.70;99.90;;;;;;514041;231;27781;-71
2023/04/26 06:25:17;;;;;;;4.97;3.90;;;2.80;99.90;;;;;;513943;231;27443;-72
2023/04/26 06:27:18;;;;;;;5.80;4.20;;;2.90;99.90;;;;;;514016;231;27339;-72
2023/04/26 06:29:19;;;;;;;9.75;4.32;;;3.00;99.90;;;;;;514060;231;27331;-72
2023/04/26 06:31:21;;;;;;;7.62;4.60;;;3.10;99.90;;;;;;514015;231;27386;-72
2023/04/26 06:33:22;;;;;;;4.45;4.05;;;3.30;99.90;;;;;;514017;231;27324;-72
2023/04/26 06:35:24;;;;;;;6.93;4.00;;;3.40;99.90;;;;;;513982;231;27434;-72
2023/04/26 06:37:24;;;;;;;4.15;3.75;;;3.60;99.90;;;;;;514064;231;27790;-73
2023/04/26 06:39:26;;;;;;;5.68;3.95;;;3.60;99.90;;;;;;514043;231;27370;-72
2023/04/26 06:41:27;;;;;;;6.72;4.30;;;3.80;99.90;;;;;;514017;231;27461;-72
2023/04/26 06:43:28;;;;;;;5.15;3.60;;;3.90;99.90;;;;;;514018;231;27863;-72
2023/04/26 06:45:30;;;;;;;4.80;3.30;;;4.00;99.90;;;;;;513903;231;27936;-72
2023/04/26 06:47:31;;;;;;;6.35;3.85;;;4.10;99.90;;;;;;514052;231;27842;-73
2023/04/26 06:49:32;;;;;;;5.15;3.80;;;4.20;99.90;;;;;;514009;231;27323;-72
2023/04/26 06:51:33;;;;;;;5.65;3.83;;;4.30;99.90;;;;;;514007;231;27456;-72
2023/04/26 06:53:34;;;;;;;2.90;2.70;;;4.40;99.90;;;;;;513880;231;27402;-72
2023/04/26 06:55:36;;;;;;;8.55;4.18;;;4.60;99.90;;;;;;513924;231;27363;-72
2023/04/26 06:57:37;;;;;;;7.22;4.07;;;4.70;99.90;;;;;;514030;231;27706;-74
2023/04/26 06:59:38;;;;;;;7.28;3.47;;;5.00;99.90;;;;;;514011;231;27375;-72
2023/04/26 07:01:39;;;;;;;13.02;4.75;;;5.30;99.90;;;;;;514009;231;27367;-73
2023/04/26 07:03:41;;;;;;;4.20;3.67;;;5.40;99.90;;;;;;513985;231;27867;-73
2023/04/26 07:05:42;;;;;;;7.70;4.25;;;5.70;99.90;;;;;;513933;231;27858;-73
2023/04/26 07:07:43;;;;;;;9.30;4.15;;;5.90;99.90;;;;;;514045;231;27430;-74
2023/04/26 07:09:45;;;;;;;12.88;4.57;;;6.10;99.90;;;;;;513967;231;27425;-73
2023/04/26 07:11:46;;;;;;;11.07;3.70;;;6.20;99.90;;;;;;514013;231;27373;-73
2023/04/26 07:13:47;;;;;;;9.65;3.92;;;6.20;99.90;;;;;;514003;231;27319;-72
2023/04/26 07:15:48;;;;;;;8.43;4.33;;;6.30;99.90;;;;;;513989;231;27848;-72
2023/04/26 07:17:49;;;;;;;10.03;3.80;;;6.30;99.90;;;;;;513995;231;28045;-73
2023/04/26 07:19:51;;;;;;;8.13;3.53;;;6.40;99.90;;;;;;513971;231;27905;-73
2023/04/26 07:21:52;;;;;;;8.88;3.35;;;6.50;99.90;;;;;;513930;231;27422;-73
2023/04/26 07:23:53;;;;;;;8.70;3.80;;;6.60;99.90;;;;;;514017;231;27426;-73
2023/04/26 07:25:54;;;;;;;7.30;3.75;;;6.60;99.90;;;;;;513932;231;28146;-72
2023/04/26 07:27:56;;;;;;;4.85;3.30;;;6.60;99.90;;;;;;514014;231;27374;-72
2023/04/26 07:29:57;;;;;;;8.40;3.80;;;6.60;99.90;;;;;;513995;231;27392;-74
2023/04/26 07:31:58;;;;;;;4.90;3.30;;;6.60;99.90;;;;;;513927;231;27851;-72
2023/04/26 07:34:00;;;;;;;8.83;3.40;;;6.70;99.90;;;;;;513979;231;27801;-73
2023/04/26 07:36:01;;;;;;;4.40;3.23;;;6.80;99.90;;;;;;513969;231;27571;-73
2023/04/26 07:38:03;;;;;;;4.30;2.97;;;6.90;99.90;;;;;;514022;231;28244;-74
2023/04/26 07:40:03;;;;;;;3.90;3.13;;;7.00;99.90;;;;;;514008;231;28310;-73
2023/04/26 07:42:04;;;;;;;5.67;3.07;;;7.00;99.90;;;;;;513994;231;28381;-73
2023/04/26 07:44:06;;;;;;;8.10;3.20;;;7.20;99.90;;;;;;514072;231;28203;-75
2023/04/26 07:46:07;;;;;;;5.03;2.90;;;7.20;99.90;;;;;;514013;231;28004;-73
2023/04/26 07:48:08;;;;;;;5.40;2.70;;;7.20;99.90;;;;;;514030;231;28277;-74
2023/04/26 07:50:10;;;;;;;4.00;2.63;;;7.30;99.90;;;;;;514023;231;27480;-73
2023/04/26 07:52:11;;;;;;;5.17;2.80;;;7.30;99.90;;;;;;514037;231;27808;-73
2023/04/26 07:54:12;;;;;;;5.10;3.03;;;7.40;99.90;;;;;;514017;231;27847;-74
2023/04/26 07:56:14;;;;;;;8.70;3.13;;;7.50;99.90;;;;;;513985;231;28011;-73
2023/04/26 07:58:15;;;;;;;7.57;2.70;;;7.70;99.90;;;;;;514011;231;27831;-73
2023/04/26 08:00:16;;;;;;;6.47;4.17;;;7.80;99.90;;;;;;514000;231;27960;-73
2023/04/26 08:02:17;;;;;;;7.63;4.10;;;7.70;99.90;;;;;;513999;231;28004;-73
2023/04/26 08:04:18;;;;;;;9.00;3.73;;;7.70;99.90;;;;;;514026;231;27917;-73
2023/04/26 08:06:20;;;;;;;7.53;2.70;;;7.70;99.90;;;;;;513994;231;27847;-72
2023/04/26 08:08:21;;;;;;;5.70;3.60;;;7.60;99.90;;;;;;513955;231;27708;-73
2023/04/26 08:10:22;;;;;;;7.70;3.00;;;7.60;99.90;;;;;;514007;231;27854;-72
2023/04/26 08:12:23;;;;;;;3.93;3.13;;;7.60;99.90;;;;;;514035;231;27835;-73
2023/04/26 08:14:24;;;;;;;9.53;4.00;;;7.70;99.90;;;;;;513960;231;27904;-73
2023/04/26 08:16:26;;;;;;;11.43;3.30;;;7.90;99.90;;;;;;514037;231;28194;-72
2023/04/26 08:18:27;;;;;;;6.50;3.80;;;7.90;99.90;;;;;;514028;231;28493;-73
2023/04/26 08:20:28;;;;;;;7.30;3.10;;;8.10;99.90;;;;;;514040;231;29007;-73
2023/04/26 08:22:29;;;;;;;4.60;3.00;;;8.20;99.90;;;;;;514029;231;28397;-73
2023/04/26 08:24:31;;;;;;;5.93;2.93;;;8.20;99.90;;;;;;513995;231;28276;-74
2023/04/26 08:26:32;;;;;;;8.80;3.40;;;8.30;99.90;;;;;;513990;231;27769;-72
2023/04/26 08:28:34;;;;;;;3.60;3.13;;;8.40;99.90;;;;;;514028;231;27956;-73
2023/04/26 08:30:34;;;;;;;5.70;3.40;;;8.50;99.90;;;;;;513983;231;27886;-73
2023/04/26 08:32:36;;;;;;;5.07;2.70;;;8.60;99.30;;;;;;514028;231;27783;-73
2023/04/26 08:34:37;;;;;;;9.40;3.30;;;8.70;99.90;;;;;;513973;231;27481;-73
2023/04/26 08:36:38;;;;;;;4.47;2.73;;;9.00;99.90;;;;;;514019;231;27701;-73
2023/04/26 08:38:39;;;;;;;4.63;3.23;;;9.20;99.90;;;;;;513989;231;28170;-73
2023/04/26 08:40:41;;;;;;;6.50;3.30;;;9.30;99.80;;;;;;514029;231;28323;-74
2023/04/26 08:42:43;;;;;;;2.90;2.70;;;9.40;99.10;;;;;;514007;231;27911;-73
2023/04/26 08:44:43;;;;;;;7.13;3.00;;;9.50;98.80;;;;;;513959;231;27804;-73
2023/04/26 08:46:44;;;;;;;7.60;3.67;;;9.40;96.70;;;;;;513958;231;27754;-72
2023/04/26 08:48:46;;;;;;;5.10;2.87;;;9.40;95.40;;;;;;513989;231;27932;-73
2023/04/26 08:50:47;;;;;;;5.53;3.10;;;9.20;96.00;;;;;;513973;231;28281;-74
2023/04/26 08:52:49;;;;;;;5.13;2.80;;;9.00;96.80;;;;;;514085;231;28044;-72
2023/04/26 08:54:50;;;;;;;5.97;3.60;;;9.00;95.10;;;;;;513874;231;28392;-73
2023/04/26 08:56:51;;;;;;;4.40;2.80;;;9.00;94.00;;;;;;513907;231;28216;-72
2023/04/26 08:58:52;;;;;;;9.07;3.10;;;9.00;96.50;;;;;;513979;231;28366;-73
2023/04/26 09:00:53;;;;;;;5.20;2.60;;;9.10;95.30;;;;;;514018;231;28452;-73
2023/04/26 09:02:54;;;;;;;3.37;2.70;;;9.20;95.80;;;;;;514009;231;27744;-73
2023/04/26 09:04:56;;;;;;;4.60;3.17;;;9.40;96.40;;;;;;513988;231;27477;-73
2023/04/26 09:06:57;;;;;;;6.30;3.10;;;9.60;94.40;;;;;;514037;231;27547;-73
2023/04/26 09:08:59;;;;;;;3.43;2.77;;;9.80;93.70;;;;;;514012;231;27917;-74
2023/04/26 09:10:59;;;;;;;7.50;3.27;;;9.90;92.40;;;;;;514080;231;27730;-74
2023/04/26 09:13:01;;;;;;;7.50;3.17;;;9.60;90.80;;;;;;514051;231;27948;-73
2023/04/26 09:15:03;;;;;;;5.23;2.97;;;9.40;90.70;;;;;;513976;231;27869;-73
2023/04/26 09:17:03;;;;;;;6.17;2.90;;;9.40;88.00;;;;;;513972;231;27802;-73
2023/04/26 09:19:04;;;;;;;4.70;2.73;;;9.60;89.70;;;;;;514026;231;27961;-73
2023/04/26 09:21:06;;;;;;;8.10;2.73;;;9.90;87.80;;;;;;514052;231;28129;-74
2023/04/26 09:23:07;;;;;;;5.67;2.90;;;10.10;90.30;;;;;;514016;231;27922;-73
2023/04/26 09:25:08;;;;;;;8.23;3.10;;;10.20;90.00;;;;;;513914;231;27998;-73
2023/04/26 09:27:10;;;;;;;5.32;2.80;;;10.00;86.10;;;;;;512929;231;36169;-73
2023/04/26 09:29:11;;;;;;;5.07;3.23;;;9.70;85.10;;;;;;514043;231;27937;-73
2023/04/26 09:31:12;;;;;;;5.70;2.40;;;9.50;84.60;;;;;;514063;231;28395;-74
2023/04/26 09:33:13;;;;;;;5.87;2.33;;;9.80;83.70;;;;;;514075;231;28439;-72
2023/04/26 09:35:14;;;;;;;4.00;2.67;;;10.10;87.40;;;;;;513993;231;28406;-73
2023/04/26 09:37:16;;;;;;;6.40;2.50;;;10.20;84.60;;;;;;513968;231;27772;-73
2023/04/26 09:39:17;;;;;;;6.50;2.90;;;10.20;81.10;;;;;;513724;231;27982;-74
2023/04/26 09:41:18;;;;;;;4.70;2.30;;;10.40;87.90;;;;;;513956;231;27979;-74
2023/04/26 09:43:19;;;;;;;4.03;2.53;;;10.60;85.50;;;;;;513843;231;28133;-73
2023/04/26 09:45:21;;;;;;;4.77;2.43;;;10.60;82.40;;;;;;513781;231;28252;-74
2023/04/26 09:47:22;;;;;;;5.10;2.47;;;10.70;79.60;;;;;;513888;231;27984;-72
2023/04/26 09:49:23;;;;;;;6.40;2.43;;;10.70;79.30;;;;;;513812;231;28055;-73
2023/04/26 09:51:25;;;;;;;5.50;2.87;;;10.80;80.80;;;;;;514046;231;28238;-75
2023/04/26 09:53:26;;;;;;;5.77;2.37;;;11.00;81.30;;;;;;513996;231;28607;-73
2023/04/26 09:55:27;;;;;;;5.47;2.70;;;10.80;79.70;;;;;;513991;231;28870;-73
2023/04/26 09:57:28;;;;;;;6.80;2.30;;;11.10;80.60;;;;;;514039;231;28678;-73
2023/04/26 09:59:29;;;;;;;4.53;2.67;;;11.30;75.10;;;;;;514028;231;28795;-73
2023/04/26 10:01:33;;;;;;;5.23;2.47;;;11.30;69.90;;;;;;514084;231;28351;-74
2023/04/26 10:03:32;;;;;;;4.53;2.83;;;11.20;72.30;;;;;;513805;231;28370;-73
2023/04/26 10:05:33;;;;;;;7.90;2.83;;;11.10;69.40;;;;;;513982;231;28224;-73
2023/04/26 10:07:35;;;;;;;3.60;2.30;;;10.90;71.50;;;;;;513997;231;28250;-73
2023/04/26 10:09:36;;;;;;;5.83;2.63;;;11.10;72.40;;;;;;514030;231;28454;-73
2023/04/26 10:11:37;;;;;;;4.23;2.20;;;11.10;70.60;;;;;;514061;231;28336;-73
2023/04/26 10:13:38;;;;;;;7.00;2.93;;;11.10;69.00;;;;;;514044;231;28626;-73
2023/04/26 10:15:40;;;;;;;6.33;2.50;;;11.10;69.90;;;;;;513998;231;28751;-73
2023/04/26 10:17:42;;;;;;;3.17;2.30;;;;;;;;;;514036;231;28678;-73
2023/04/26 10:19:43;;;;;;;1.80;1.70;;;11.50;75.00;;;;;;514067;231;26914;-74
2023/04/26 10:21:44;;;;;;;4.60;2.10;;;11.80;76.40;;;;;;514012;231;28313;-73
2023/04/26 10:23:46;;;;;;;3.00;1.93;;;11.90;73.30;;;;;;514021;231;28207;-73
2023/04/26 10:25:47;;;;;;;3.77;2.13;;;12.00;75.50;;;;;;513941;231;28179;-72
2023/04/26 10:27:48;;;;;;;2.50;1.80;;;11.80;68.00;;;;;;514045;231;28313;-73
2023/04/26 10:29:50;;;;;;;3.93;2.10;;;11.80;68.60;;;;;;514050;231;28294;-74
2023/04/26 10:31:51;;;;;;;7.27;2.37;;;11.80;74.20;;;;;;514029;231;28220;-73
2023/04/26 10:33:52;;;;;;;4.67;2.27;;;11.60;78.50;;;;;;514010;231;28448;-74
2023/04/26 10:35:53;;;;;;;4.20;2.50;;;11.70;82.70;;;;;;513752;231;28220;-73
2023/04/26 10:37:56;;;;;;;6.43;2.70;;;;;;;;;;514000;231;29053;-73